sensor_id;sensor_type;location;lat;lon;timestamp;P1;durP1;ratioP1;P2;durP2;ratioP2
68976;SDS011;56029;52.568;13.588;2023-07-08T00:00:21;14.30;;;7.20;;
68976;SDS011;56029;52.568;13.588;2023-07-08T00:03:08;15.18;;;7.53;;
68976;SDS011;56029;52.568;13.588;2023-07-08T00:05:34;15.23;;;7.57;;
68976;SDS011;56029;52.568;13.588;2023-07-08T00:08:00;13.68;;;7.60;;
68976;SDS011;56029;52.568;13.588;2023-07-08T00:10:27;13.20;;;7.20;;
68976;SDS011;56029;52.568;13.588;2023-07-08T00:12:54;12.23;;;7.10;;
68976;SDS011;56029;52.568;13.588;2023-07-08T00:15:25;10.80;;;7.03;;
68976;SDS011;56029;52.568;13.588;2023-07-08T00:17:53;11.13;;;6.90;;
68976;SDS011;56029;52.568;13.588;2023-07-08T00:20:31;14.03;;;7.20;;
68976;SDS011;56029;52.568;13.588;2023-07-08T00:23:00;13.07;;;6.70;;
68976;SDS011;56029;52.568;13.588;2023-07-08T00:25:26;12.93;;;6.88;;
68976;SDS011;56029;52.568;13.588;2023-07-08T00:27:53;11.40;;;7.43;;
68976;SDS011;56029;52.568;13.588;2023-07-08T00:30:20;10.23;;;7.30;;
68976;SDS011;56029;52.568;13.588;2023-07-08T00:32:48;14.73;;;7.30;;
68976;SDS011;56029;52.568;13.588;2023-07-08T00:35:19;9.57;;;6.57;;
68976;SDS011;56029;52.568;13.588;2023-07-08T00:37:47;12.60;;;7.50;;
68976;SDS011;56029;52.568;13.588;2023-07-08T00:40:21;11.23;;;7.10;;
68976;SDS011;56029;52.568;13.588;2023-07-08T00:42:48;11.98;;;7.60;;
68976;SDS011;56029;52.568;13.588;2023-07-08T00:46:00;11.95;;;6.97;;
68976;SDS011;56029;52.568;13.588;2023-07-08T00:48:01;13.65;;;7.53;;
68976;SDS011;56029;52.568;13.588;2023-07-08T00:50:32;12.57;;;7.77;;
68976;SDS011;56029;52.568;13.588;2023-07-08T00:53:21;12.93;;;6.90;;
68976;SDS011;56029;52.568;13.588;2023-07-08T00:55:52;10.95;;;7.25;;
68976;SDS011;56029;52.568;13.588;2023-07-08T00:58:19;10.60;;;7.47;;
68976;SDS011;56029;52.568;13.588;2023-07-08T01:00:47;10.40;;;6.97;;
68976;SDS011;56029;52.568;13.588;2023-07-08T01:03:15;10.68;;;7.10;;
68976;SDS011;56029;52.568;13.588;2023-07-08T01:05:43;10.98;;;7.32;;
68976;SDS011;56029;52.568;13.588;2023-07-08T01:08:10;11.00;;;7.30;;
68976;SDS011;56029;52.568;13.588;2023-07-08T01:10:37;9.53;;;7.20;;
68976;SDS011;56029;52.568;13.588;2023-07-08T01:13:08;9.73;;;7.18;;
68976;SDS011;56029;52.568;13.588;2023-07-08T01:15:40;11.95;;;7.47;;
68976;SDS011;56029;52.568;13.588;2023-07-08T01:18:08;10.63;;;8.00;;
68976;SDS011;56029;52.568;13.588;2023-07-08T01:20:35;9.60;;;7.57;;
68976;SDS011;56029;52.568;13.588;2023-07-08T01:23:01;11.63;;;7.82;;
68976;SDS011;56029;52.568;13.588;2023-07-08T01:25:26;11.93;;;7.73;;
68976;SDS011;56029;52.568;13.588;2023-07-08T01:27:53;11.02;;;7.90;;
68976;SDS011;56029;52.568;13.588;2023-07-08T01:30:20;12.30;;;7.75;;
68976;SDS011;56029;52.568;13.588;2023-07-08T01:32:50;11.20;;;7.28;;
68976;SDS011;56029;52.568;13.588;2023-07-08T01:35:19;9.95;;;7.50;;
68976;SDS011;56029;52.568;13.588;2023-07-08T01:37:51;10.67;;;7.80;;
68976;SDS011;56029;52.568;13.588;2023-07-08T01:42:45;10.57;;;7.35;;
68976;SDS011;56029;52.568;13.588;2023-07-08T01:45:15;10.57;;;7.30;;
68976;SDS011;56029;52.568;13.588;2023-07-08T01:47:42;12.20;;;7.40;;
68976;SDS011;56029;52.568;13.588;2023-07-08T01:50:13;10.63;;;7.30;;
68976;SDS011;56029;52.568;13.588;2023-07-08T01:52:39;12.83;;;7.70;;
68976;SDS011;56029;52.568;13.588;2023-07-08T01:55:05;10.02;;;7.35;;
68976;SDS011;56029;52.568;13.588;2023-07-08T01:57:31;10.43;;;7.18;;
68976;SDS011;56029;52.568;13.588;2023-07-08T01:59:57;10.70;;;7.17;;
68976;SDS011;56029;52.568;13.588;2023-07-08T02:02:24;10.63;;;7.15;;
68976;SDS011;56029;52.568;13.588;2023-07-08T02:04:50;9.93;;;7.35;;
68976;SDS011;56029;52.568;13.588;2023-07-08T02:07:16;10.93;;;7.57;;
68976;SDS011;56029;52.568;13.588;2023-07-08T02:09:41;10.80;;;7.05;;
68976;SDS011;56029;52.568;13.588;2023-07-08T02:12:07;10.60;;;7.40;;
68976;SDS011;56029;52.568;13.588;2023-07-08T02:14:33;9.68;;;6.80;;
68976;SDS011;56029;52.568;13.588;2023-07-08T02:16:58;10.63;;;7.27;;
68976;SDS011;56029;52.568;13.588;2023-07-08T02:19:24;10.30;;;7.18;;
68976;SDS011;56029;52.568;13.588;2023-07-08T02:21:50;10.97;;;6.90;;
68976;SDS011;56029;52.568;13.588;2023-07-08T02:24:17;13.60;;;7.55;;
68976;SDS011;56029;52.568;13.588;2023-07-08T02:26:43;9.80;;;7.05;;
68976;SDS011;56029;52.568;13.588;2023-07-08T02:29:08;9.23;;;6.83;;
68976;SDS011;56029;52.568;13.588;2023-07-08T02:31:34;9.32;;;6.68;;
68976;SDS011;56029;52.568;13.588;2023-07-08T02:33:59;9.93;;;6.80;;
68976;SDS011;56029;52.568;13.588;2023-07-08T02:36:27;9.35;;;6.72;;
68976;SDS011;56029;52.568;13.588;2023-07-08T02:38:53;9.70;;;6.53;;
68976;SDS011;56029;52.568;13.588;2023-07-08T02:41:18;8.80;;;6.57;;
68976;SDS011;56029;52.568;13.588;2023-07-08T02:43:44;8.97;;;6.80;;
68976;SDS011;56029;52.568;13.588;2023-07-08T02:46:10;10.00;;;7.15;;
68976;SDS011;56029;52.568;13.588;2023-07-08T02:48:35;10.80;;;6.70;;
68976;SDS011;56029;52.568;13.588;2023-07-08T02:51:02;11.07;;;7.15;;
68976;SDS011;56029;52.568;13.588;2023-07-08T02:53:28;10.70;;;7.15;;
68976;SDS011;56029;52.568;13.588;2023-07-08T02:55:54;9.17;;;6.77;;
68976;SDS011;56029;52.568;13.588;2023-07-08T02:58:20;10.97;;;6.77;;
68976;SDS011;56029;52.568;13.588;2023-07-08T03:00:50;10.77;;;7.10;;
68976;SDS011;56029;52.568;13.588;2023-07-08T03:03:19;10.18;;;7.13;;
68976;SDS011;56029;52.568;13.588;2023-07-08T03:05:53;8.95;;;6.53;;
68976;SDS011;56029;52.568;13.588;2023-07-08T03:08:20;9.70;;;7.10;;
68976;SDS011;56029;52.568;13.588;2023-07-08T03:10:47;9.73;;;6.77;;
68976;SDS011;56029;52.568;13.588;2023-07-08T03:13:14;10.38;;;7.05;;
68976;SDS011;56029;52.568;13.588;2023-07-08T03:15:39;9.80;;;6.50;;
68976;SDS011;56029;52.568;13.588;2023-07-08T03:18:05;10.20;;;6.85;;
68976;SDS011;56029;52.568;13.588;2023-07-08T03:20:30;8.93;;;6.80;;
68976;SDS011;56029;52.568;13.588;2023-07-08T03:22:58;10.57;;;7.38;;
68976;SDS011;56029;52.568;13.588;2023-07-08T03:25:24;10.20;;;7.33;;
68976;SDS011;56029;52.568;13.588;2023-07-08T03:27:49;11.52;;;7.50;;
68976;SDS011;56029;52.568;13.588;2023-07-08T03:30:15;12.75;;;7.80;;
68976;SDS011;56029;52.568;13.588;2023-07-08T03:32:40;9.83;;;7.13;;
68976;SDS011;56029;52.568;13.588;2023-07-08T03:35:07;9.30;;;6.70;;
68976;SDS011;56029;52.568;13.588;2023-07-08T03:37:33;9.98;;;6.70;;
68976;SDS011;56029;52.568;13.588;2023-07-08T03:39:59;9.73;;;7.10;;
68976;SDS011;56029;52.568;13.588;2023-07-08T03:42:24;9.25;;;6.40;;
68976;SDS011;56029;52.568;13.588;2023-07-08T03:44:50;9.60;;;6.40;;
68976;SDS011;56029;52.568;13.588;2023-07-08T03:47:15;10.80;;;6.67;;
68976;SDS011;56029;52.568;13.588;2023-07-08T03:49:41;8.45;;;6.35;;
68976;SDS011;56029;52.568;13.588;2023-07-08T03:52:07;10.90;;;6.70;;
68976;SDS011;56029;52.568;13.588;2023-07-08T03:54:41;9.05;;;6.03;;
68976;SDS011;56029;52.568;13.588;2023-07-08T03:57:06;8.83;;;6.20;;
68976;SDS011;56029;52.568;13.588;2023-07-08T03:59:32;9.07;;;5.93;;
68976;SDS011;56029;52.568;13.588;2023-07-08T04:01:57;9.97;;;6.40;;
68976;SDS011;56029;52.568;13.588;2023-07-08T04:04:23;9.35;;;6.00;;
68976;SDS011;56029;52.568;13.588;2023-07-08T04:06:49;9.37;;;5.67;;
68976;SDS011;56029;52.568;13.588;2023-07-08T04:09:15;9.30;;;5.93;;
68976;SDS011;56029;52.568;13.588;2023-07-08T04:11:41;9.13;;;6.20;;
68976;SDS011;56029;52.568;13.588;2023-07-08T04:14:09;8.65;;;5.85;;
68976;SDS011;56029;52.568;13.588;2023-07-08T04:16:49;8.02;;;5.95;;
68976;SDS011;56029;52.568;13.588;2023-07-08T04:19:18;8.93;;;5.60;;
68976;SDS011;56029;52.568;13.588;2023-07-08T04:21:44;9.55;;;6.25;;
68976;SDS011;56029;52.568;13.588;2023-07-08T04:24:11;8.10;;;6.00;;
68976;SDS011;56029;52.568;13.588;2023-07-08T04:26:39;8.90;;;6.10;;
68976;SDS011;56029;52.568;13.588;2023-07-08T04:29:12;8.13;;;5.95;;
68976;SDS011;56029;52.568;13.588;2023-07-08T04:31:39;9.53;;;6.10;;
68976;SDS011;56029;52.568;13.588;2023-07-08T04:34:07;8.43;;;6.20;;
68976;SDS011;56029;52.568;13.588;2023-07-08T04:36:33;8.88;;;5.75;;
68976;SDS011;56029;52.568;13.588;2023-07-08T04:38:59;7.63;;;5.82;;
68976;SDS011;56029;52.568;13.588;2023-07-08T04:41:26;8.27;;;5.90;;
68976;SDS011;56029;52.568;13.588;2023-07-08T04:43:52;9.07;;;5.60;;
68976;SDS011;56029;52.568;13.588;2023-07-08T04:46:25;10.32;;;5.82;;
68976;SDS011;56029;52.568;13.588;2023-07-08T04:48:55;7.40;;;5.30;;
68976;SDS011;56029;52.568;13.588;2023-07-08T04:51:21;8.13;;;5.63;;
68976;SDS011;56029;52.568;13.588;2023-07-08T04:53:47;8.23;;;5.90;;
68976;SDS011;56029;52.568;13.588;2023-07-08T04:56:13;7.65;;;5.75;;
68976;SDS011;56029;52.568;13.588;2023-07-08T04:58:39;9.23;;;5.60;;
68976;SDS011;56029;52.568;13.588;2023-07-08T05:01:04;7.83;;;5.30;;
68976;SDS011;56029;52.568;13.588;2023-07-08T05:03:30;7.47;;;5.38;;
68976;SDS011;56029;52.568;13.588;2023-07-08T05:05:56;7.17;;;5.20;;
68976;SDS011;56029;52.568;13.588;2023-07-08T05:08:21;6.87;;;4.70;;
68976;SDS011;56029;52.568;13.588;2023-07-08T05:10:47;6.40;;;4.93;;
68976;SDS011;56029;52.568;13.588;2023-07-08T05:13:12;6.37;;;5.10;;
68976;SDS011;56029;52.568;13.588;2023-07-08T05:15:38;7.03;;;4.97;;
68976;SDS011;56029;52.568;13.588;2023-07-08T05:18:03;6.03;;;4.70;;
68976;SDS011;56029;52.568;13.588;2023-07-08T05:20:29;6.03;;;4.83;;
68976;SDS011;56029;52.568;13.588;2023-07-08T05:22:56;8.20;;;4.88;;
68976;SDS011;56029;52.568;13.588;2023-07-08T05:25:21;6.93;;;4.97;;
68976;SDS011;56029;52.568;13.588;2023-07-08T05:27:47;7.43;;;5.10;;
68976;SDS011;56029;52.568;13.588;2023-07-08T05:30:14;6.33;;;4.83;;
68976;SDS011;56029;52.568;13.588;2023-07-08T05:32:42;8.77;;;5.28;;
68976;SDS011;56029;52.568;13.588;2023-07-08T05:35:07;6.10;;;4.90;;
68976;SDS011;56029;52.568;13.588;2023-07-08T05:37:33;7.35;;;5.43;;
68976;SDS011;56029;52.568;13.588;2023-07-08T05:39:59;7.97;;;5.17;;
68976;SDS011;56029;52.568;13.588;2023-07-08T05:42:27;7.18;;;5.65;;
68976;SDS011;56029;52.568;13.588;2023-07-08T05:44:53;7.90;;;5.50;;
68976;SDS011;56029;52.568;13.588;2023-07-08T05:47:20;8.27;;;5.78;;
68976;SDS011;56029;52.568;13.588;2023-07-08T05:49:46;8.70;;;5.53;;
68976;SDS011;56029;52.568;13.588;2023-07-08T05:52:12;8.43;;;5.93;;
68976;SDS011;56029;52.568;13.588;2023-07-08T05:54:38;8.73;;;6.00;;
68976;SDS011;56029;52.568;13.588;2023-07-08T05:57:06;8.52;;;5.88;;
68976;SDS011;56029;52.568;13.588;2023-07-08T05:59:33;8.45;;;6.18;;
68976;SDS011;56029;52.568;13.588;2023-07-08T06:02:00;8.73;;;6.10;;
68976;SDS011;56029;52.568;13.588;2023-07-08T06:04:25;8.70;;;6.03;;
68976;SDS011;56029;52.568;13.588;2023-07-08T06:06:52;9.63;;;6.53;;
68976;SDS011;56029;52.568;13.588;2023-07-08T06:09:17;8.35;;;6.28;;
68976;SDS011;56029;52.568;13.588;2023-07-08T06:11:43;8.77;;;6.60;;
68976;SDS011;56029;52.568;13.588;2023-07-08T06:14:08;8.77;;;6.70;;
68976;SDS011;56029;52.568;13.588;2023-07-08T06:16:34;9.35;;;6.40;;
68976;SDS011;56029;52.568;13.588;2023-07-08T06:19:00;10.90;;;6.50;;
68976;SDS011;56029;52.568;13.588;2023-07-08T06:21:26;7.90;;;6.30;;
68976;SDS011;56029;52.568;13.588;2023-07-08T06:23:51;8.25;;;6.35;;
68976;SDS011;56029;52.568;13.588;2023-07-08T06:26:17;10.10;;;6.50;;
68976;SDS011;56029;52.568;13.588;2023-07-08T06:28:43;9.53;;;6.90;;
68976;SDS011;56029;52.568;13.588;2023-07-08T06:31:08;10.13;;;6.38;;
68976;SDS011;56029;52.568;13.588;2023-07-08T06:33:34;8.00;;;6.13;;
68976;SDS011;56029;52.568;13.588;2023-07-08T06:35:59;6.95;;;5.78;;
68976;SDS011;56029;52.568;13.588;2023-07-08T06:38:25;7.50;;;5.67;;
68976;SDS011;56029;52.568;13.588;2023-07-08T06:40:50;8.23;;;5.80;;
68976;SDS011;56029;52.568;13.588;2023-07-08T06:43:16;8.07;;;5.70;;
68976;SDS011;56029;52.568;13.588;2023-07-08T06:45:42;8.37;;;5.80;;
68976;SDS011;56029;52.568;13.588;2023-07-08T06:48:08;8.23;;;5.75;;
68976;SDS011;56029;52.568;13.588;2023-07-08T06:50:35;8.88;;;5.80;;
68976;SDS011;56029;52.568;13.588;2023-07-08T06:53:00;8.33;;;5.77;;
68976;SDS011;56029;52.568;13.588;2023-07-08T06:55:26;8.57;;;6.25;;
68976;SDS011;56029;52.568;13.588;2023-07-08T06:57:52;8.40;;;6.03;;
68976;SDS011;56029;52.568;13.588;2023-07-08T07:00:17;8.35;;;6.40;;
68976;SDS011;56029;52.568;13.588;2023-07-08T07:02:43;8.37;;;6.10;;
68976;SDS011;56029;52.568;13.588;2023-07-08T07:05:09;7.45;;;5.70;;
68976;SDS011;56029;52.568;13.588;2023-07-08T07:07:34;7.25;;;5.90;;
68976;SDS011;56029;52.568;13.588;2023-07-08T07:10:00;9.00;;;6.40;;
68976;SDS011;56029;52.568;13.588;2023-07-08T07:12:26;8.68;;;5.85;;
68976;SDS011;56029;52.568;13.588;2023-07-08T07:14:52;8.38;;;5.93;;
68976;SDS011;56029;52.568;13.588;2023-07-08T07:17:19;8.13;;;6.20;;
68976;SDS011;56029;52.568;13.588;2023-07-08T07:19:46;8.85;;;6.55;;
68976;SDS011;56029;52.568;13.588;2023-07-08T07:22:13;7.82;;;6.07;;
68976;SDS011;56029;52.568;13.588;2023-07-08T07:24:38;7.25;;;6.10;;
68976;SDS011;56029;52.568;13.588;2023-07-08T07:27:04;7.63;;;6.33;;
68976;SDS011;56029;52.568;13.588;2023-07-08T07:29:38;8.47;;;6.40;;
68976;SDS011;56029;52.568;13.588;2023-07-08T07:32:06;7.63;;;6.35;;
68976;SDS011;56029;52.568;13.588;2023-07-08T07:34:32;9.73;;;6.65;;
68976;SDS011;56029;52.568;13.588;2023-07-08T07:36:58;7.53;;;6.13;;
68976;SDS011;56029;52.568;13.588;2023-07-08T07:39:23;7.78;;;6.43;;
68976;SDS011;56029;52.568;13.588;2023-07-08T07:41:49;9.10;;;6.87;;
68976;SDS011;56029;52.568;13.588;2023-07-08T07:44:14;8.00;;;6.47;;
68976;SDS011;56029;52.568;13.588;2023-07-08T07:46:40;8.80;;;6.70;;
68976;SDS011;56029;52.568;13.588;2023-07-08T07:49:05;8.43;;;6.60;;
68976;SDS011;56029;52.568;13.588;2023-07-08T07:51:31;7.60;;;6.20;;
68976;SDS011;56029;52.568;13.588;2023-07-08T07:53:56;10.63;;;6.45;;
68976;SDS011;56029;52.568;13.588;2023-07-08T07:56:22;8.00;;;6.67;;
68976;SDS011;56029;52.568;13.588;2023-07-08T07:58:47;7.37;;;6.30;;
68976;SDS011;56029;52.568;13.588;2023-07-08T08:01:13;8.70;;;6.87;;
68976;SDS011;56029;52.568;13.588;2023-07-08T08:03:39;9.38;;;6.60;;
68976;SDS011;56029;52.568;13.588;2023-07-08T08:06:04;9.47;;;6.47;;
68976;SDS011;56029;52.568;13.588;2023-07-08T08:08:30;8.32;;;6.43;;
68976;SDS011;56029;52.568;13.588;2023-07-08T08:10:56;8.67;;;6.50;;
68976;SDS011;56029;52.568;13.588;2023-07-08T08:13:22;7.78;;;6.40;;
68976;SDS011;56029;52.568;13.588;2023-07-08T08:15:47;8.60;;;6.03;;
68976;SDS011;56029;52.568;13.588;2023-07-08T08:18:13;8.67;;;6.27;;
68976;SDS011;56029;52.568;13.588;2023-07-08T08:20:38;8.75;;;6.40;;
68976;SDS011;56029;52.568;13.588;2023-07-08T08:23:05;7.40;;;6.10;;
68976;SDS011;56029;52.568;13.588;2023-07-08T08:25:31;7.35;;;6.03;;
68976;SDS011;56029;52.568;13.588;2023-07-08T08:27:57;8.27;;;6.22;;
68976;SDS011;56029;52.568;13.588;2023-07-08T08:30:22;8.67;;;5.60;;
68976;SDS011;56029;52.568;13.588;2023-07-08T08:32:48;8.38;;;5.93;;
68976;SDS011;56029;52.568;13.588;2023-07-08T08:35:14;7.80;;;5.80;;
68976;SDS011;56029;52.568;13.588;2023-07-08T08:37:39;8.13;;;5.30;;
68976;SDS011;56029;52.568;13.588;2023-07-08T08:40:05;7.05;;;5.05;;
68976;SDS011;56029;52.568;13.588;2023-07-08T08:42:42;7.57;;;5.30;;
68976;SDS011;56029;52.568;13.588;2023-07-08T08:45:15;8.27;;;5.20;;
68976;SDS011;56029;52.568;13.588;2023-07-08T08:47:44;7.55;;;5.32;;
68976;SDS011;56029;52.568;13.588;2023-07-08T08:52:40;8.35;;;5.10;;
68976;SDS011;56029;52.568;13.588;2023-07-08T08:55:16;7.10;;;4.80;;
68976;SDS011;56029;52.568;13.588;2023-07-08T09:00:16;6.45;;;4.60;;
68976;SDS011;56029;52.568;13.588;2023-07-08T09:02:53;5.63;;;4.15;;
68976;SDS011;56029;52.568;13.588;2023-07-08T09:05:26;5.38;;;4.30;;
68976;SDS011;56029;52.568;13.588;2023-07-08T09:08:08;6.23;;;4.80;;
68976;SDS011;56029;52.568;13.588;2023-07-08T09:10:48;5.70;;;4.22;;
68976;SDS011;56029;52.568;13.588;2023-07-08T09:13:22;6.53;;;3.72;;
68976;SDS011;56029;52.568;13.588;2023-07-08T09:16:15;4.97;;;4.00;;
68976;SDS011;56029;52.568;13.588;2023-07-08T09:21:33;6.50;;;4.53;;
68976;SDS011;56029;52.568;13.588;2023-07-08T09:24:08;5.72;;;4.03;;
68976;SDS011;56029;52.568;13.588;2023-07-08T09:26:40;5.22;;;3.45;;
68976;SDS011;56029;52.568;13.588;2023-07-08T09:29:09;5.82;;;3.40;;
68976;SDS011;56029;52.568;13.588;2023-07-08T09:31:36;5.30;;;3.50;;
68976;SDS011;56029;52.568;13.588;2023-07-08T09:34:09;5.77;;;3.40;;
68976;SDS011;56029;52.568;13.588;2023-07-08T09:36:38;6.60;;;3.60;;
68976;SDS011;56029;52.568;13.588;2023-07-08T09:39:10;6.03;;;3.67;;
68976;SDS011;56029;52.568;13.588;2023-07-08T09:41:38;5.80;;;3.50;;
68976;SDS011;56029;52.568;13.588;2023-07-08T09:46:52;5.93;;;3.93;;
68976;SDS011;56029;52.568;13.588;2023-07-08T09:49:20;5.50;;;3.65;;
68976;SDS011;56029;52.568;13.588;2023-07-08T09:52:12;6.00;;;3.90;;
68976;SDS011;56029;52.568;13.588;2023-07-08T09:54:40;5.07;;;3.60;;
68976;SDS011;56029;52.568;13.588;2023-07-08T09:57:14;6.28;;;3.92;;
68976;SDS011;56029;52.568;13.588;2023-07-08T09:59:49;4.67;;;3.50;;
68976;SDS011;56029;52.568;13.588;2023-07-08T10:02:35;5.63;;;3.80;;
68976;SDS011;56029;52.568;13.588;2023-07-08T10:05:18;5.10;;;3.67;;
68976;SDS011;56029;52.568;13.588;2023-07-08T10:07:52;4.93;;;3.67;;
68976;SDS011;56029;52.568;13.588;2023-07-08T10:10:26;5.75;;;3.70;;
68976;SDS011;56029;52.568;13.588;2023-07-08T10:12:56;5.20;;;3.67;;
68976;SDS011;56029;52.568;13.588;2023-07-08T10:15:29;5.93;;;3.60;;
68976;SDS011;56029;52.568;13.588;2023-07-08T10:18:02;6.45;;;3.88;;
68976;SDS011;56029;52.568;13.588;2023-07-08T10:20:32;5.70;;;4.00;;
68976;SDS011;56029;52.568;13.588;2023-07-08T10:23:12;4.88;;;3.78;;
68976;SDS011;56029;52.568;13.588;2023-07-08T10:25:53;6.67;;;3.70;;
68976;SDS011;56029;52.568;13.588;2023-07-08T10:28:29;5.93;;;3.50;;
68976;SDS011;56029;52.568;13.588;2023-07-08T10:31:07;4.35;;;3.42;;
68976;SDS011;56029;52.568;13.588;2023-07-08T10:36:30;5.72;;;3.67;;
68976;SDS011;56029;52.568;13.588;2023-07-08T10:39:17;6.40;;;3.67;;
68976;SDS011;56029;52.568;13.588;2023-07-08T10:50:51;4.72;;;3.70;;
68976;SDS011;56029;52.568;13.588;2023-07-08T10:55:55;6.18;;;3.60;;
68976;SDS011;56029;52.568;13.588;2023-07-08T10:58:44;4.55;;;3.50;;
68976;SDS011;56029;52.568;13.588;2023-07-08T11:01:34;5.40;;;3.85;;
68976;SDS011;56029;52.568;13.588;2023-07-08T11:04:26;5.43;;;3.70;;
68976;SDS011;56029;52.568;13.588;2023-07-08T11:07:19;5.67;;;3.80;;
68976;SDS011;56029;52.568;13.588;2023-07-08T11:09:50;5.43;;;3.40;;
68976;SDS011;56029;52.568;13.588;2023-07-08T11:12:23;5.88;;;3.75;;
68976;SDS011;56029;52.568;13.588;2023-07-08T11:17:47;5.72;;;3.80;;
68976;SDS011;56029;52.568;13.588;2023-07-08T11:20:17;5.20;;;3.77;;
68976;SDS011;56029;52.568;13.588;2023-07-08T11:22:49;5.40;;;3.72;;
68976;SDS011;56029;52.568;13.588;2023-07-08T11:25:43;4.63;;;3.70;;
68976;SDS011;56029;52.568;13.588;2023-07-08T11:28:10;6.60;;;3.65;;
68976;SDS011;56029;52.568;13.588;2023-07-08T11:30:41;6.47;;;4.03;;
68976;SDS011;56029;52.568;13.588;2023-07-08T11:33:11;6.63;;;4.10;;
68976;SDS011;56029;52.568;13.588;2023-07-08T11:35:42;5.05;;;3.60;;
68976;SDS011;56029;52.568;13.588;2023-07-08T11:38:12;6.30;;;3.70;;
68976;SDS011;56029;52.568;13.588;2023-07-08T11:41:03;5.85;;;3.60;;
68976;SDS011;56029;52.568;13.588;2023-07-08T11:46:12;5.43;;;3.60;;
68976;SDS011;56029;52.568;13.588;2023-07-08T11:48:47;5.82;;;3.50;;
68976;SDS011;56029;52.568;13.588;2023-07-08T11:51:16;7.10;;;3.92;;
68976;SDS011;56029;52.568;13.588;2023-07-08T11:54:28;5.97;;;3.97;;
68976;SDS011;56029;52.568;13.588;2023-07-08T11:56:49;4.93;;;3.40;;
68976;SDS011;56029;52.568;13.588;2023-07-08T11:59:23;5.53;;;3.70;;
68976;SDS011;56029;52.568;13.588;2023-07-08T12:02:14;5.18;;;3.90;;
68976;SDS011;56029;52.568;13.588;2023-07-08T12:04:58;4.55;;;3.50;;
68976;SDS011;56029;52.568;13.588;2023-07-08T12:07:37;5.85;;;4.20;;
68976;SDS011;56029;52.568;13.588;2023-07-08T12:10:10;4.60;;;3.40;;
68976;SDS011;56029;52.568;13.588;2023-07-08T12:12:40;5.20;;;3.50;;
68976;SDS011;56029;52.568;13.588;2023-07-08T12:15:20;5.93;;;4.00;;
68976;SDS011;56029;52.568;13.588;2023-07-08T12:17:50;5.78;;;3.83;;
68976;SDS011;56029;52.568;13.588;2023-07-08T12:20:19;6.25;;;3.80;;
68976;SDS011;56029;52.568;13.588;2023-07-08T12:22:49;6.20;;;3.70;;
68976;SDS011;56029;52.568;13.588;2023-07-08T12:25:17;5.23;;;3.83;;
68976;SDS011;56029;52.568;13.588;2023-07-08T12:27:45;5.75;;;4.13;;
68976;SDS011;56029;52.568;13.588;2023-07-08T12:30:12;7.05;;;4.00;;
68976;SDS011;56029;52.568;13.588;2023-07-08T12:32:39;6.13;;;3.97;;
68976;SDS011;56029;52.568;13.588;2023-07-08T12:35:09;4.85;;;3.67;;
68976;SDS011;56029;52.568;13.588;2023-07-08T12:37:46;5.03;;;3.60;;
68976;SDS011;56029;52.568;13.588;2023-07-08T12:40:12;5.05;;;3.70;;
68976;SDS011;56029;52.568;13.588;2023-07-08T12:42:38;5.78;;;4.00;;
68976;SDS011;56029;52.568;13.588;2023-07-08T12:45:09;6.47;;;3.70;;
68976;SDS011;56029;52.568;13.588;2023-07-08T12:47:39;6.97;;;3.85;;
68976;SDS011;56029;52.568;13.588;2023-07-08T12:50:04;5.73;;;3.70;;
68976;SDS011;56029;52.568;13.588;2023-07-08T12:52:30;5.95;;;3.67;;
68976;SDS011;56029;52.568;13.588;2023-07-08T12:54:55;6.03;;;3.80;;
68976;SDS011;56029;52.568;13.588;2023-07-08T12:57:21;6.50;;;3.93;;
68976;SDS011;56029;52.568;13.588;2023-07-08T12:59:48;6.63;;;3.90;;
68976;SDS011;56029;52.568;13.588;2023-07-08T13:02:15;5.80;;;4.13;;
68976;SDS011;56029;52.568;13.588;2023-07-08T13:04:44;5.05;;;3.70;;
68976;SDS011;56029;52.568;13.588;2023-07-08T13:07:16;5.27;;;3.90;;
68976;SDS011;56029;52.568;13.588;2023-07-08T13:09:53;5.00;;;3.70;;
68976;SDS011;56029;52.568;13.588;2023-07-08T13:12:19;5.97;;;3.88;;
68976;SDS011;56029;52.568;13.588;2023-07-08T13:14:51;5.40;;;3.65;;
68976;SDS011;56029;52.568;13.588;2023-07-08T13:17:18;4.70;;;3.53;;
68976;SDS011;56029;52.568;13.588;2023-07-08T13:19:44;6.18;;;4.00;;
68976;SDS011;56029;52.568;13.588;2023-07-08T13:22:12;5.65;;;3.90;;
68976;SDS011;56029;52.568;13.588;2023-07-08T13:24:41;5.45;;;3.65;;
68976;SDS011;56029;52.568;13.588;2023-07-08T13:27:08;5.53;;;3.80;;
68976;SDS011;56029;52.568;13.588;2023-07-08T13:29:41;6.32;;;3.92;;
68976;SDS011;56029;52.568;13.588;2023-07-08T13:32:10;5.50;;;3.92;;
68976;SDS011;56029;52.568;13.588;2023-07-08T13:34:36;5.65;;;3.97;;
68976;SDS011;56029;52.568;13.588;2023-07-08T13:37:02;7.28;;;3.95;;
68976;SDS011;56029;52.568;13.588;2023-07-08T13:39:29;6.73;;;4.20;;
68976;SDS011;56029;52.568;13.588;2023-07-08T13:41:57;6.10;;;3.90;;
68976;SDS011;56029;52.568;13.588;2023-07-08T13:44:24;6.37;;;4.03;;
68976;SDS011;56029;52.568;13.588;2023-07-08T13:49:22;5.73;;;3.90;;
68976;SDS011;56029;52.568;13.588;2023-07-08T13:51:50;6.07;;;4.10;;
68976;SDS011;56029;52.568;13.588;2023-07-08T13:56:48;5.75;;;3.80;;
68976;SDS011;56029;52.568;13.588;2023-07-08T13:59:24;6.07;;;4.00;;
68976;SDS011;56029;52.568;13.588;2023-07-08T14:01:51;6.27;;;4.23;;
68976;SDS011;56029;52.568;13.588;2023-07-08T14:04:28;5.20;;;3.90;;
68976;SDS011;56029;52.568;13.588;2023-07-08T14:06:56;5.82;;;4.00;;
68976;SDS011;56029;52.568;13.588;2023-07-08T14:09:22;4.90;;;3.57;;
68976;SDS011;56029;52.568;13.588;2023-07-08T14:11:49;7.15;;;3.92;;
68976;SDS011;56029;52.568;13.588;2023-07-08T14:14:16;5.97;;;3.80;;
68976;SDS011;56029;52.568;13.588;2023-07-08T14:16:43;6.57;;;4.57;;
68976;SDS011;56029;52.568;13.588;2023-07-08T14:19:17;5.07;;;3.97;;
68976;SDS011;56029;52.568;13.588;2023-07-08T14:21:47;5.17;;;3.90;;
68976;SDS011;56029;52.568;13.588;2023-07-08T14:24:19;6.43;;;3.80;;
68976;SDS011;56029;52.568;13.588;2023-07-08T14:26:45;6.30;;;3.80;;
68976;SDS011;56029;52.568;13.588;2023-07-08T14:29:12;5.38;;;3.85;;
68976;SDS011;56029;52.568;13.588;2023-07-08T14:31:38;5.83;;;4.00;;
68976;SDS011;56029;52.568;13.588;2023-07-08T14:34:08;5.78;;;4.03;;
68976;SDS011;56029;52.568;13.588;2023-07-08T14:36:36;6.13;;;4.10;;
68976;SDS011;56029;52.568;13.588;2023-07-08T14:39:12;6.97;;;5.10;;
68976;SDS011;56029;52.568;13.588;2023-07-08T14:41:39;4.82;;;3.97;;
68976;SDS011;56029;52.568;13.588;2023-07-08T14:44:18;5.35;;;3.92;;
68976;SDS011;56029;52.568;13.588;2023-07-08T14:46:46;5.22;;;4.00;;
68976;SDS011;56029;52.568;13.588;2023-07-08T14:49:14;6.30;;;4.27;;
68976;SDS011;56029;52.568;13.588;2023-07-08T14:51:41;4.88;;;3.70;;
68976;SDS011;56029;52.568;13.588;2023-07-08T14:54:06;5.97;;;4.17;;
68976;SDS011;56029;52.568;13.588;2023-07-08T14:56:32;5.20;;;3.93;;
68976;SDS011;56029;52.568;13.588;2023-07-08T14:58:58;7.00;;;4.20;;
68976;SDS011;56029;52.568;13.588;2023-07-08T15:01:24;5.28;;;3.92;;
68976;SDS011;56029;52.568;13.588;2023-07-08T15:03:52;7.40;;;4.25;;
68976;SDS011;56029;52.568;13.588;2023-07-08T15:06:19;5.88;;;4.28;;
68976;SDS011;56029;52.568;13.588;2023-07-08T15:08:45;6.47;;;4.50;;
68976;SDS011;56029;52.568;13.588;2023-07-08T15:11:11;7.10;;;4.20;;
68976;SDS011;56029;52.568;13.588;2023-07-08T15:13:37;5.68;;;4.25;;
68976;SDS011;56029;52.568;13.588;2023-07-08T15:16:03;5.80;;;4.17;;
68976;SDS011;56029;52.568;13.588;2023-07-08T15:18:29;8.13;;;4.90;;